Terminal Aerodrome Forecast
Issued by NWS Wakefield, VA

Home | Current Version | Previous Version | Text Only | Print | Product List | Glossary On
Versions: 1 2 3 4 5 6 7 8 9 10 11 12 13 14 15 16
000
FTUS41 KAKQ 022340
TAFRIC
TAF
KRIC 022340Z 0300/0324 03005KT P6SM SCT025 OVC100
     FM030300 VRB03KT P6SM OVC080
     FM030600 VRB03KT 3SM BR OVC015
     FM031000 VRB03KT 2SM -RA BR OVC008
     FM031500 12005KT 5SM -RA BR OVC015=

USA.gov is the U.S. government's official web portal to all federal, state and local government web resources and services.